Terminal Aerodrome Forecast
Issued by NWS

Home | Current Version | Previous Version | Graphics & Text | Print | Product List | Glossary On
Versions: 1 2 3 4 5 6 7 8 9 10 11 12 13 14 15 16
000
FTUS43 KGRB 262300
TAFAUW
TAF
KAUW 262340Z 2700/2724 29010KT P6SM SKC
     FM270200 23004KT P6SM BKN120
      TEMPO 2705/2709 28005KT 6SM -SHRA SCT040 BKN060
     FM271400 27009KT P6SM VCSH SCT040 BKN060
      TEMPO 2716/2720 3SM -SHRA BR SCT020 BKN035=

USA.gov is the U.S. government's official web portal to all federal, state and local government web resources and services.